sensor_id;sensor_type;location;lat;lon;timestamp;pressure;altitude;pressure_sealevel;temperature;humidity
50867;BME280;36839;51.946;21.002;2023-04-26T00:01:11;99349.77;;;6.31;100.00
50867;BME280;36839;51.946;21.002;2023-04-26T00:03:41;99350.48;;;6.31;100.00
50867;BME280;36839;51.946;21.002;2023-04-26T00:06:11;99353.70;;;6.29;100.00
50867;BME280;36839;51.946;21.002;2023-04-26T00:08:42;99352.21;;;6.28;100.00
50867;BME280;36839;51.946;21.002;2023-04-26T00:11:14;99356.49;;;6.27;100.00
50867;BME280;36839;51.946;21.002;2023-04-26T00:13:43;99358.20;;;6.26;100.00
50867;BME280;36839;51.946;21.002;2023-04-26T00:16:12;99364.31;;;6.25;100.00
50867;BME280;36839;51.946;21.002;2023-04-26T00:18:39;99366.70;;;6.22;100.00
50867;BME280;36839;51.946;21.002;2023-04-26T00:21:07;99363.68;;;6.20;100.00
50867;BME280;36839;51.946;21.002;2023-04-26T00:23:37;99363.73;;;6.19;100.00
50867;BME280;36839;51.946;21.002;2023-04-26T00:26:06;99359.23;;;6.20;100.00
50867;BME280;36839;51.946;21.002;2023-04-26T00:28:33;99361.84;;;6.17;100.00
50867;BME280;36839;51.946;21.002;2023-04-26T00:31:04;99359.24;;;6.15;100.00
50867;BME280;36839;51.946;21.002;2023-04-26T00:33:36;99355.89;;;6.14;100.00
50867;BME280;36839;51.946;21.002;2023-04-26T00:36:04;99360.20;;;6.13;100.00
50867;BME280;36839;51.946;21.002;2023-04-26T00:38:33;99363.21;;;6.11;100.00
50867;BME280;36839;51.946;21.002;2023-04-26T00:41:01;99361.08;;;6.10;100.00
50867;BME280;36839;51.946;21.002;2023-04-26T00:43:29;99367.16;;;6.09;100.00
50867;BME280;36839;51.946;21.002;2023-04-26T00:45:56;99366.52;;;6.07;100.00
50867;BME280;36839;51.946;21.002;2023-04-26T00:48:24;99365.45;;;6.04;100.00
50867;BME280;36839;51.946;21.002;2023-04-26T00:51:00;99369.71;;;6.01;100.00
50867;BME280;36839;51.946;21.002;2023-04-26T00:53:31;99370.20;;;5.99;100.00
50867;BME280;36839;51.946;21.002;2023-04-26T00:55:59;99369.98;;;5.94;100.00
50867;BME280;36839;51.946;21.002;2023-04-26T00:58:29;99371.84;;;5.90;100.00
50867;BME280;36839;51.946;21.002;2023-04-26T01:00:59;99373.25;;;5.83;100.00
50867;BME280;36839;51.946;21.002;2023-04-26T01:03:29;99377.61;;;5.79;100.00
50867;BME280;36839;51.946;21.002;2023-04-26T01:06:00;99378.88;;;5.76;100.00
50867;BME280;36839;51.946;21.002;2023-04-26T01:08:31;99380.42;;;5.70;100.00
50867;BME280;36839;51.946;21.002;2023-04-26T01:10:59;99383.31;;;5.65;100.00
50867;BME280;36839;51.946;21.002;2023-04-26T01:13:42;99382.20;;;5.62;100.00
50867;BME280;36839;51.946;21.002;2023-04-26T01:16:09;99383.64;;;5.59;100.00
50867;BME280;36839;51.946;21.002;2023-04-26T01:18:37;99385.91;;;5.56;100.00
50867;BME280;36839;51.946;21.002;2023-04-26T01:21:21;99393.84;;;5.55;100.00
50867;BME280;36839;51.946;21.002;2023-04-26T01:23:50;99399.77;;;5.54;100.00
50867;BME280;36839;51.946;21.002;2023-04-26T01:26:17;99401.40;;;5.53;100.00
50867;BME280;36839;51.946;21.002;2023-04-26T01:28:46;99397.23;;;5.52;100.00
50867;BME280;36839;51.946;21.002;2023-04-26T01:31:18;99403.68;;;5.52;100.00
50867;BME280;36839;51.946;21.002;2023-04-26T01:33:46;99402.86;;;5.51;100.00
50867;BME280;36839;51.946;21.002;2023-04-26T01:36:20;99402.41;;;5.50;100.00
50867;BME280;36839;51.946;21.002;2023-04-26T01:38:49;99403.58;;;5.49;100.00
50867;BME280;36839;51.946;21.002;2023-04-26T01:41:16;99402.80;;;5.47;100.00
50867;BME280;36839;51.946;21.002;2023-04-26T01:43:44;99407.20;;;5.43;100.00
50867;BME280;36839;51.946;21.002;2023-04-26T01:46:12;99408.39;;;5.42;100.00
50867;BME280;36839;51.946;21.002;2023-04-26T01:48:42;99409.45;;;5.40;100.00
50867;BME280;36839;51.946;21.002;2023-04-26T01:51:14;99412.13;;;5.39;100.00
50867;BME280;36839;51.946;21.002;2023-04-26T01:53:45;99415.10;;;5.40;100.00
50867;BME280;36839;51.946;21.002;2023-04-26T01:56:24;99411.98;;;5.40;100.00
50867;BME280;36839;51.946;21.002;2023-04-26T01:58:52;99414.53;;;5.39;100.00
50867;BME280;36839;51.946;21.002;2023-04-26T02:01:24;99418.11;;;5.40;100.00
50867;BME280;36839;51.946;21.002;2023-04-26T02:03:52;99424.81;;;5.42;100.00
50867;BME280;36839;51.946;21.002;2023-04-26T02:06:21;99422.48;;;5.43;100.00
50867;BME280;36839;51.946;21.002;2023-04-26T02:08:57;99423.31;;;5.44;100.00
50867;BME280;36839;51.946;21.002;2023-04-26T02:11:25;99418.77;;;5.45;100.00
50867;BME280;36839;51.946;21.002;2023-04-26T02:13:56;99419.16;;;5.46;100.00
50867;BME280;36839;51.946;21.002;2023-04-26T02:16:24;99417.63;;;5.45;100.00
50867;BME280;36839;51.946;21.002;2023-04-26T02:18:52;99417.08;;;5.44;100.00
50867;BME280;36839;51.946;21.002;2023-04-26T02:21:20;99414.94;;;5.44;100.00
50867;BME280;36839;51.946;21.002;2023-04-26T02:23:50;99421.81;;;5.42;100.00
50867;BME280;36839;51.946;21.002;2023-04-26T02:26:17;99420.96;;;5.44;100.00
50867;BME280;36839;51.946;21.002;2023-04-26T02:28:46;99423.81;;;5.44;100.00
50867;BME280;36839;51.946;21.002;2023-04-26T02:31:14;99419.50;;;5.46;100.00
50867;BME280;36839;51.946;21.002;2023-04-26T02:33:44;99420.32;;;5.47;100.00
50867;BME280;36839;51.946;21.002;2023-04-26T02:36:21;99416.71;;;5.48;100.00
50867;BME280;36839;51.946;21.002;2023-04-26T02:38:48;99419.30;;;5.49;100.00
50867;BME280;36839;51.946;21.002;2023-04-26T02:41:22;99420.45;;;5.48;100.00
50867;BME280;36839;51.946;21.002;2023-04-26T02:43:50;99425.15;;;5.51;100.00
50867;BME280;36839;51.946;21.002;2023-04-26T02:46:20;99425.80;;;5.48;100.00
50867;BME280;36839;51.946;21.002;2023-04-26T02:48:47;99435.83;;;5.47;100.00
50867;BME280;36839;51.946;21.002;2023-04-26T02:51:19;99433.14;;;5.48;100.00
50867;BME280;36839;51.946;21.002;2023-04-26T02:53:49;99431.59;;;5.45;100.00
50867;BME280;36839;51.946;21.002;2023-04-26T02:56:21;99430.25;;;5.42;100.00
50867;BME280;36839;51.946;21.002;2023-04-26T02:58:50;99431.83;;;5.38;100.00
50867;BME280;36839;51.946;21.002;2023-04-26T03:01:21;99436.24;;;5.36;100.00
50867;BME280;36839;51.946;21.002;2023-04-26T03:03:49;99434.20;;;5.34;100.00
50867;BME280;36839;51.946;21.002;2023-04-26T03:06:20;99437.11;;;5.31;100.00
50867;BME280;36839;51.946;21.002;2023-04-26T03:08:47;99440.12;;;5.26;100.00
50867;BME280;36839;51.946;21.002;2023-04-26T03:11:17;99438.27;;;5.22;100.00
50867;BME280;36839;51.946;21.002;2023-04-26T03:13:47;99436.39;;;5.16;100.00
50867;BME280;36839;51.946;21.002;2023-04-26T03:16:18;99438.51;;;5.11;100.00
50867;BME280;36839;51.946;21.002;2023-04-26T03:18:47;99439.66;;;5.03;100.00
50867;BME280;36839;51.946;21.002;2023-04-26T03:21:25;99440.76;;;4.96;100.00
50867;BME280;36839;51.946;21.002;2023-04-26T03:23:54;99438.96;;;4.87;100.00
50867;BME280;36839;51.946;21.002;2023-04-26T03:26:22;99441.11;;;4.81;100.00
50867;BME280;36839;51.946;21.002;2023-04-26T03:28:52;99441.59;;;4.73;100.00
50867;BME280;36839;51.946;21.002;2023-04-26T03:31:22;99444.16;;;4.65;100.00
50867;BME280;36839;51.946;21.002;2023-04-26T03:33:50;99442.64;;;4.58;100.00
50867;BME280;36839;51.946;21.002;2023-04-26T03:36:20;99440.64;;;4.54;100.00
50867;BME280;36839;51.946;21.002;2023-04-26T03:38:51;99441.75;;;4.47;100.00
50867;BME280;36839;51.946;21.002;2023-04-26T03:41:20;99448.55;;;4.38;100.00
50867;BME280;36839;51.946;21.002;2023-04-26T03:43:50;99446.46;;;4.31;100.00
50867;BME280;36839;51.946;21.002;2023-04-26T03:46:18;99447.87;;;4.26;100.00
50867;BME280;36839;51.946;21.002;2023-04-26T03:48:46;99447.59;;;4.19;100.00
50867;BME280;36839;51.946;21.002;2023-04-26T03:51:14;99446.58;;;4.15;100.00
50867;BME280;36839;51.946;21.002;2023-04-26T03:53:42;99447.27;;;4.11;100.00
50867;BME280;36839;51.946;21.002;2023-04-26T03:56:09;99450.80;;;4.06;100.00
50867;BME280;36839;51.946;21.002;2023-04-26T03:58:37;99453.15;;;4.03;100.00
50867;BME280;36839;51.946;21.002;2023-04-26T04:01:12;99446.07;;;3.98;100.00
50867;BME280;36839;51.946;21.002;2023-04-26T04:03:41;99452.05;;;3.94;100.00
50867;BME280;36839;51.946;21.002;2023-04-26T04:06:08;99456.43;;;3.88;100.00
50867;BME280;36839;51.946;21.002;2023-04-26T04:08:36;99455.27;;;3.84;100.00
50867;BME280;36839;51.946;21.002;2023-04-26T04:11:08;99456.52;;;3.81;100.00
50867;BME280;36839;51.946;21.002;2023-04-26T04:13:41;99455.79;;;3.80;100.00
50867;BME280;36839;51.946;21.002;2023-04-26T04:16:10;99461.87;;;3.78;100.00
50867;BME280;36839;51.946;21.002;2023-04-26T04:18:37;99464.75;;;3.80;100.00
50867;BME280;36839;51.946;21.002;2023-04-26T04:21:07;99462.40;;;3.80;100.00
50867;BME280;36839;51.946;21.002;2023-04-26T04:23:35;99465.77;;;3.79;100.00
50867;BME280;36839;51.946;21.002;2023-04-26T04:26:03;99466.23;;;3.81;100.00
50867;BME280;36839;51.946;21.002;2023-04-26T04:28:31;99470.03;;;3.82;100.00
50867;BME280;36839;51.946;21.002;2023-04-26T04:31:00;99466.75;;;3.85;100.00
50867;BME280;36839;51.946;21.002;2023-04-26T04:33:29;99467.64;;;3.86;100.00
50867;BME280;36839;51.946;21.002;2023-04-26T04:35:58;99464.98;;;3.89;100.00
50867;BME280;36839;51.946;21.002;2023-04-26T04:38:27;99469.64;;;3.90;100.00
50867;BME280;36839;51.946;21.002;2023-04-26T04:40:56;99471.05;;;3.92;100.00
50867;BME280;36839;51.946;21.002;2023-04-26T04:43:24;99477.17;;;3.96;100.00
50867;BME280;36839;51.946;21.002;2023-04-26T04:45:53;99483.92;;;4.00;100.00
50867;BME280;36839;51.946;21.002;2023-04-26T04:48:28;99486.73;;;4.01;100.00
50867;BME280;36839;51.946;21.002;2023-04-26T04:50:56;99490.20;;;3.99;100.00
50867;BME280;36839;51.946;21.002;2023-04-26T04:53:25;99495.91;;;3.98;100.00
50867;BME280;36839;51.946;21.002;2023-04-26T04:55:55;99496.82;;;3.97;100.00
50867;BME280;36839;51.946;21.002;2023-04-26T04:58:27;99497.29;;;3.97;100.00
50867;BME280;36839;51.946;21.002;2023-04-26T05:00:56;99499.44;;;3.97;100.00
50867;BME280;36839;51.946;21.002;2023-04-26T05:03:33;99503.42;;;3.99;100.00
50867;BME280;36839;51.946;21.002;2023-04-26T05:06:01;99497.84;;;3.97;100.00
50867;BME280;36839;51.946;21.002;2023-04-26T05:08:40;99496.16;;;3.99;100.00
50867;BME280;36839;51.946;21.002;2023-04-26T05:11:18;99503.64;;;4.00;100.00
50867;BME280;36839;51.946;21.002;2023-04-26T05:13:47;99505.96;;;3.98;100.00
50867;BME280;36839;51.946;21.002;2023-04-26T05:16:15;99511.44;;;4.02;100.00
50867;BME280;36839;51.946;21.002;2023-04-26T05:18:43;99510.40;;;4.08;100.00
50867;BME280;36839;51.946;21.002;2023-04-26T05:21:12;99518.91;;;4.13;100.00
50867;BME280;36839;51.946;21.002;2023-04-26T05:23:43;99518.70;;;4.19;100.00
50867;BME280;36839;51.946;21.002;2023-04-26T05:26:14;99523.81;;;4.21;100.00
50867;BME280;36839;51.946;21.002;2023-04-26T05:28:43;99527.92;;;4.21;100.00
50867;BME280;36839;51.946;21.002;2023-04-26T05:31:11;99526.80;;;4.23;100.00
50867;BME280;36839;51.946;21.002;2023-04-26T05:33:41;99523.48;;;4.29;100.00
50867;BME280;36839;51.946;21.002;2023-04-26T05:36:10;99522.02;;;4.40;100.00
50867;BME280;36839;51.946;21.002;2023-04-26T05:38:39;99524.27;;;4.50;100.00
50867;BME280;36839;51.946;21.002;2023-04-26T05:41:10;99526.83;;;4.59;100.00
50867;BME280;36839;51.946;21.002;2023-04-26T05:43:43;99519.05;;;4.69;100.00
50867;BME280;36839;51.946;21.002;2023-04-26T05:46:13;99523.70;;;4.79;100.00
50867;BME280;36839;51.946;21.002;2023-04-26T05:48:44;99518.20;;;4.85;100.00
50867;BME280;36839;51.946;21.002;2023-04-26T05:51:12;99522.14;;;4.92;100.00
50867;BME280;36839;51.946;21.002;2023-04-26T05:53:43;99518.52;;;4.99;100.00
50867;BME280;36839;51.946;21.002;2023-04-26T05:56:13;99523.21;;;5.09;100.00
50867;BME280;36839;51.946;21.002;2023-04-26T05:58:42;99516.92;;;5.12;100.00
50867;BME280;36839;51.946;21.002;2023-04-26T06:01:10;99521.88;;;5.19;100.00
50867;BME280;36839;51.946;21.002;2023-04-26T06:03:39;99526.20;;;5.26;100.00
50867;BME280;36839;51.946;21.002;2023-04-26T06:06:07;99525.60;;;5.31;100.00
50867;BME280;36839;51.946;21.002;2023-04-26T06:08:34;99522.30;;;5.34;100.00
50867;BME280;36839;51.946;21.002;2023-04-26T06:11:16;99525.49;;;5.47;100.00
50867;BME280;36839;51.946;21.002;2023-04-26T06:13:45;99530.24;;;5.53;100.00
50867;BME280;36839;51.946;21.002;2023-04-26T06:16:13;99531.72;;;5.54;100.00
50867;BME280;36839;51.946;21.002;2023-04-26T06:18:42;99532.02;;;5.58;100.00
50867;BME280;36839;51.946;21.002;2023-04-26T06:21:10;99531.63;;;5.64;100.00
50867;BME280;36839;51.946;21.002;2023-04-26T06:23:53;99540.17;;;5.64;100.00
50867;BME280;36839;51.946;21.002;2023-04-26T06:26:20;99534.56;;;5.61;100.00
50867;BME280;36839;51.946;21.002;2023-04-26T06:28:50;99534.55;;;5.65;100.00
50867;BME280;36839;51.946;21.002;2023-04-26T06:31:20;99533.58;;;5.76;100.00
50867;BME280;36839;51.946;21.002;2023-04-26T06:33:54;99539.84;;;5.93;100.00
50867;BME280;36839;51.946;21.002;2023-04-26T06:36:22;99536.41;;;5.99;100.00
50867;BME280;36839;51.946;21.002;2023-04-26T06:38:50;99541.20;;;6.01;100.00
50867;BME280;36839;51.946;21.002;2023-04-26T06:41:21;99547.14;;;6.03;100.00
50867;BME280;36839;51.946;21.002;2023-04-26T06:43:50;99541.71;;;6.14;100.00
50867;BME280;36839;51.946;21.002;2023-04-26T06:46:18;99539.71;;;6.26;100.00
50867;BME280;36839;51.946;21.002;2023-04-26T06:48:47;99541.27;;;6.26;100.00
50867;BME280;36839;51.946;21.002;2023-04-26T06:51:15;99541.17;;;6.35;100.00
50867;BME280;36839;51.946;21.002;2023-04-26T06:53:43;99538.17;;;6.37;100.00
50867;BME280;36839;51.946;21.002;2023-04-26T06:56:13;99541.03;;;6.32;100.00
50867;BME280;36839;51.946;21.002;2023-04-26T06:59:04;99543.48;;;6.41;100.00
50867;BME280;36839;51.946;21.002;2023-04-26T07:01:42;99545.83;;;6.62;100.00
50867;BME280;36839;51.946;21.002;2023-04-26T07:04:17;99544.38;;;6.62;100.00
50867;BME280;36839;51.946;21.002;2023-04-26T07:06:47;99538.30;;;6.62;100.00
50867;BME280;36839;51.946;21.002;2023-04-26T07:09:16;99542.59;;;6.64;100.00
50867;BME280;36839;51.946;21.002;2023-04-26T07:11:45;99542.26;;;6.70;100.00
50867;BME280;36839;51.946;21.002;2023-04-26T07:14:17;99542.35;;;6.81;100.00
50867;BME280;36839;51.946;21.002;2023-04-26T07:16:46;99552.77;;;6.86;100.00
50867;BME280;36839;51.946;21.002;2023-04-26T07:19:13;99561.29;;;6.88;100.00
50867;BME280;36839;51.946;21.002;2023-04-26T07:21:40;99556.05;;;6.83;100.00
50867;BME280;36839;51.946;21.002;2023-04-26T07:24:09;99552.10;;;6.93;100.00
50867;BME280;36839;51.946;21.002;2023-04-26T07:26:38;99560.92;;;7.11;100.00
50867;BME280;36839;51.946;21.002;2023-04-26T07:29:09;99556.71;;;7.23;100.00
50867;BME280;36839;51.946;21.002;2023-04-26T07:31:37;99560.68;;;7.32;100.00
50867;BME280;36839;51.946;21.002;2023-04-26T07:34:05;99566.34;;;7.26;99.96
50867;BME280;36839;51.946;21.002;2023-04-26T07:36:39;99562.16;;;7.23;98.61
50867;BME280;36839;51.946;21.002;2023-04-26T07:39:07;99563.48;;;7.30;99.89
50867;BME280;36839;51.946;21.002;2023-04-26T07:41:38;99566.71;;;7.32;98.02
50867;BME280;36839;51.946;21.002;2023-04-26T07:44:05;99561.16;;;7.39;97.63
50867;BME280;36839;51.946;21.002;2023-04-26T07:46:35;99573.13;;;7.56;98.31
50867;BME280;36839;51.946;21.002;2023-04-26T07:49:03;99575.34;;;7.67;96.71
50867;BME280;36839;51.946;21.002;2023-04-26T07:51:31;99571.95;;;7.62;93.02
50867;BME280;36839;51.946;21.002;2023-04-26T07:54:10;99571.40;;;7.72;96.18
50867;BME280;36839;51.946;21.002;2023-04-26T07:56:42;99574.23;;;7.56;95.07
50867;BME280;36839;51.946;21.002;2023-04-26T07:59:11;99583.75;;;7.39;96.15
50867;BME280;36839;51.946;21.002;2023-04-26T08:01:39;99581.20;;;7.29;97.23
50867;BME280;36839;51.946;21.002;2023-04-26T08:04:08;99588.33;;;7.36;97.77
50867;BME280;36839;51.946;21.002;2023-04-26T08:06:35;99594.87;;;7.44;99.37
50867;BME280;36839;51.946;21.002;2023-04-26T08:09:05;99602.52;;;7.45;98.14
50867;BME280;36839;51.946;21.002;2023-04-26T08:11:32;99606.30;;;7.54;96.04
50867;BME280;36839;51.946;21.002;2023-04-26T08:14:07;99594.13;;;7.67;94.01
50867;BME280;36839;51.946;21.002;2023-04-26T08:16:36;99589.57;;;7.91;93.90
50867;BME280;36839;51.946;21.002;2023-04-26T08:19:03;99590.57;;;7.92;93.01
50867;BME280;36839;51.946;21.002;2023-04-26T08:21:34;99599.71;;;7.96;94.58
50867;BME280;36839;51.946;21.002;2023-04-26T08:24:03;99588.96;;;8.02;96.43
50867;BME280;36839;51.946;21.002;2023-04-26T08:26:37;99591.16;;;8.05;95.35
50867;BME280;36839;51.946;21.002;2023-04-26T08:29:05;99592.70;;;7.88;91.58
50867;BME280;36839;51.946;21.002;2023-04-26T08:31:34;99591.35;;;7.73;89.45
50867;BME280;36839;51.946;21.002;2023-04-26T08:34:02;99594.12;;;7.55;88.13
50867;BME280;36839;51.946;21.002;2023-04-26T08:36:36;99594.56;;;7.48;90.90
50867;BME280;36839;51.946;21.002;2023-04-26T08:39:08;99599.92;;;7.36;91.75
50867;BME280;36839;51.946;21.002;2023-04-26T08:41:42;99601.14;;;7.29;92.84
50867;BME280;36839;51.946;21.002;2023-04-26T08:44:10;99606.27;;;7.39;93.60
50867;BME280;36839;51.946;21.002;2023-04-26T08:47:18;99601.08;;;7.53;93.94
50867;BME280;36839;51.946;21.002;2023-04-26T08:49:56;99597.90;;;7.96;97.33
50867;BME280;36839;51.946;21.002;2023-04-26T08:52:36;99591.88;;;8.18;91.85
50867;BME280;36839;51.946;21.002;2023-04-26T08:55:06;99590.75;;;8.27;92.62
50867;BME280;36839;51.946;21.002;2023-04-26T08:57:38;99593.52;;;8.18;91.50
50867;BME280;36839;51.946;21.002;2023-04-26T09:00:07;99601.91;;;8.10;89.79
50867;BME280;36839;51.946;21.002;2023-04-26T09:02:45;99601.97;;;8.08;89.89
50867;BME280;36839;51.946;21.002;2023-04-26T09:05:23;99602.88;;;8.01;89.75
50867;BME280;36839;51.946;21.002;2023-04-26T09:08:00;99608.23;;;7.86;88.22
50867;BME280;36839;51.946;21.002;2023-04-26T09:10:31;99612.64;;;7.72;84.63
50867;BME280;36839;51.946;21.002;2023-04-26T09:12:59;99612.77;;;7.70;85.19
50867;BME280;36839;51.946;21.002;2023-04-26T09:15:29;99608.70;;;7.99;86.01
50867;BME280;36839;51.946;21.002;2023-04-26T09:18:19;99606.52;;;8.32;82.87
50867;BME280;36839;51.946;21.002;2023-04-26T09:21:07;99609.45;;;8.39;76.17
50867;BME280;36839;51.946;21.002;2023-04-26T09:27:56;99616.52;;;8.42;81.90
50867;BME280;36839;51.946;21.002;2023-04-26T09:31:06;99622.07;;;8.16;79.14
50867;BME280;36839;51.946;21.002;2023-04-26T09:34:03;99621.56;;;7.99;80.12
50867;BME280;36839;51.946;21.002;2023-04-26T09:36:55;99624.03;;;7.87;79.61
50867;BME280;36839;51.946;21.002;2023-04-26T09:39:36;99625.94;;;7.82;81.97
50867;BME280;36839;51.946;21.002;2023-04-26T09:42:07;99633.17;;;7.69;79.33
50867;BME280;36839;51.946;21.002;2023-04-26T09:44:35;99639.46;;;7.57;76.79
50867;BME280;36839;51.946;21.002;2023-04-26T09:47:07;99634.39;;;7.55;78.05
50867;BME280;36839;51.946;21.002;2023-04-26T09:52:27;99637.35;;;7.79;78.50
50867;BME280;36839;51.946;21.002;2023-04-26T09:55:18;99632.77;;;7.86;75.47
50867;BME280;36839;51.946;21.002;2023-04-26T09:57:55;99634.11;;;7.90;75.58
50867;BME280;36839;51.946;21.002;2023-04-26T10:00:34;99631.90;;;8.11;74.88
50867;BME280;36839;51.946;21.002;2023-04-26T10:03:04;99628.29;;;8.04;71.78
50867;BME280;36839;51.946;21.002;2023-04-26T10:05:38;99634.10;;;7.99;72.30
50867;BME280;36839;51.946;21.002;2023-04-26T10:08:18;99635.77;;;7.91;72.33
50867;BME280;36839;51.946;21.002;2023-04-26T10:10:54;99628.39;;;7.92;71.35
50867;BME280;36839;51.946;21.002;2023-04-26T10:13:27;99629.85;;;7.85;69.90
50867;BME280;36839;51.946;21.002;2023-04-26T10:16:00;99628.95;;;7.92;70.47
50867;BME280;36839;51.946;21.002;2023-04-26T10:18:28;99631.14;;;8.14;69.56
50867;BME280;36839;51.946;21.002;2023-04-26T10:21:01;99626.96;;;8.38;69.81
50867;BME280;36839;51.946;21.002;2023-04-26T10:23:31;99626.86;;;8.38;66.48
50867;BME280;36839;51.946;21.002;2023-04-26T10:25:59;99644.52;;;8.29;67.28
50867;BME280;36839;51.946;21.002;2023-04-26T10:28:59;99643.38;;;8.20;64.28
50867;BME280;36839;51.946;21.002;2023-04-26T10:37:34;99638.36;;;8.29;60.59
50867;BME280;36839;51.946;21.002;2023-04-26T10:40:28;99643.14;;;8.30;59.50
50867;BME280;36839;51.946;21.002;2023-04-26T10:43:29;99648.79;;;8.11;54.59
50867;BME280;36839;51.946;21.002;2023-04-26T10:46:39;99648.10;;;8.17;55.23
50867;BME280;36839;51.946;21.002;2023-04-26T10:49:17;99649.55;;;8.18;54.93
50867;BME280;36839;51.946;21.002;2023-04-26T10:52:09;99643.34;;;8.45;57.12
50867;BME280;36839;51.946;21.002;2023-04-26T10:54:49;99637.41;;;8.70;56.44
50867;BME280;36839;51.946;21.002;2023-04-26T10:57:19;99650.67;;;8.65;54.33
50867;BME280;36839;51.946;21.002;2023-04-26T11:02:43;99655.54;;;8.57;53.55
50867;BME280;36839;51.946;21.002;2023-04-26T11:08:45;99654.78;;;8.59;52.15
50867;BME280;36839;51.946;21.002;2023-04-26T11:11:31;99661.77;;;8.83;53.32
50867;BME280;36839;51.946;21.002;2023-04-26T11:14:00;99660.98;;;9.14;53.31
50867;BME280;36839;51.946;21.002;2023-04-26T11:16:31;99660.52;;;9.02;51.94
50867;BME280;36839;51.946;21.002;2023-04-26T11:19:01;99663.98;;;8.93;54.00
50867;BME280;36839;51.946;21.002;2023-04-26T11:21:31;99677.39;;;8.71;55.99
50867;BME280;36839;51.946;21.002;2023-04-26T11:23:58;99683.73;;;8.34;55.45
50867;BME280;36839;51.946;21.002;2023-04-26T11:26:32;99683.26;;;8.18;56.13
50867;BME280;36839;51.946;21.002;2023-04-26T11:29:17;99676.98;;;8.07;56.36
50867;BME280;36839;51.946;21.002;2023-04-26T11:31:56;99679.91;;;8.09;56.97
50867;BME280;36839;51.946;21.002;2023-04-26T11:34:37;99681.59;;;8.16;58.47
50867;BME280;36839;51.946;21.002;2023-04-26T11:37:21;99680.61;;;8.36;60.18
50867;BME280;36839;51.946;21.002;2023-04-26T11:39:51;99679.79;;;8.47;58.38
50867;BME280;36839;51.946;21.002;2023-04-26T11:42:32;99687.04;;;8.58;58.12
50867;BME280;36839;51.946;21.002;2023-04-26T11:45:00;99690.70;;;8.68;58.70
50867;BME280;36839;51.946;21.002;2023-04-26T11:47:49;99698.95;;;8.66;57.53
50867;BME280;36839;51.946;21.002;2023-04-26T11:50:38;99697.27;;;8.58;56.99
50867;BME280;36839;51.946;21.002;2023-04-26T11:56:48;99705.42;;;8.25;59.48
50867;BME280;36839;51.946;21.002;2023-04-26T11:59:53;99708.44;;;8.15;59.52
50867;BME280;36839;51.946;21.002;2023-04-26T12:02:22;99702.34;;;8.19;59.92
50867;BME280;36839;51.946;21.002;2023-04-26T12:04:58;99704.73;;;8.22;57.85
50867;BME280;36839;51.946;21.002;2023-04-26T12:07:25;99709.09;;;8.14;54.78
50867;BME280;36839;51.946;21.002;2023-04-26T12:10:22;99704.73;;;8.19;53.38
50867;BME280;36839;51.946;21.002;2023-04-26T12:12:53;99693.29;;;8.70;54.20
50867;BME280;36839;51.946;21.002;2023-04-26T12:15:31;99695.58;;;9.17;55.61
50867;BME280;36839;51.946;21.002;2023-04-26T12:18:05;99694.31;;;9.75;57.66
50867;BME280;36839;51.946;21.002;2023-04-26T12:20:34;99699.73;;;9.96;52.02
50867;BME280;36839;51.946;21.002;2023-04-26T12:23:11;99700.14;;;9.86;52.01
50867;BME280;36839;51.946;21.002;2023-04-26T12:25:51;99705.03;;;9.53;52.01
50867;BME280;36839;51.946;21.002;2023-04-26T12:28:25;99706.23;;;9.33;54.33
50867;BME280;36839;51.946;21.002;2023-04-26T12:31:16;99722.79;;;8.85;53.77
50867;BME280;36839;51.946;21.002;2023-04-26T12:33:43;99723.54;;;8.58;55.40
50867;BME280;36839;51.946;21.002;2023-04-26T12:36:31;99734.36;;;8.28;55.57
50867;BME280;36839;51.946;21.002;2023-04-26T12:39:28;99732.34;;;7.93;55.34
50867;BME280;36839;51.946;21.002;2023-04-26T12:41:59;99726.86;;;7.96;56.17
50867;BME280;36839;51.946;21.002;2023-04-26T12:44:28;99729.77;;;8.10;57.42
50867;BME280;36839;51.946;21.002;2023-04-26T12:46:57;99732.41;;;8.12;56.96
50867;BME280;36839;51.946;21.002;2023-04-26T12:49:28;99731.08;;;8.19;55.57
50867;BME280;36839;51.946;21.002;2023-04-26T12:52:08;99741.94;;;8.40;55.15
50867;BME280;36839;51.946;21.002;2023-04-26T12:54:41;99739.88;;;8.47;53.75
50867;BME280;36839;51.946;21.002;2023-04-26T12:57:11;99741.38;;;8.58;52.80
50867;BME280;36839;51.946;21.002;2023-04-26T12:59:48;99738.23;;;8.92;54.12
50867;BME280;36839;51.946;21.002;2023-04-26T13:02:16;99744.01;;;9.07;55.90
50867;BME280;36839;51.946;21.002;2023-04-26T13:04:48;99734.65;;;9.17;55.50
50867;BME280;36839;51.946;21.002;2023-04-26T13:07:21;99735.33;;;9.23;55.01
50867;BME280;36839;51.946;21.002;2023-04-26T13:09:52;99742.16;;;8.95;51.60
50867;BME280;36839;51.946;21.002;2023-04-26T13:12:19;99739.86;;;8.67;50.64
50867;BME280;36839;51.946;21.002;2023-04-26T13:14:53;99748.52;;;8.43;51.58
50867;BME280;36839;51.946;21.002;2023-04-26T13:17:23;99748.14;;;8.28;53.63
50867;BME280;36839;51.946;21.002;2023-04-26T13:19:57;99754.34;;;8.10;54.20
50867;BME280;36839;51.946;21.002;2023-04-26T13:22:26;99750.88;;;7.99;55.50
50867;BME280;36839;51.946;21.002;2023-04-26T13:24:54;99749.47;;;7.96;57.51
50867;BME280;36839;51.946;21.002;2023-04-26T13:27:21;99753.48;;;7.95;57.95
50867;BME280;36839;51.946;21.002;2023-04-26T13:29:50;99752.08;;;7.89;58.74
50867;BME280;36839;51.946;21.002;2023-04-26T13:32:20;99751.02;;;7.96;59.49
50867;BME280;36839;51.946;21.002;2023-04-26T13:34:57;99756.09;;;8.16;59.11
50867;BME280;36839;51.946;21.002;2023-04-26T13:37:25;99756.55;;;8.29;56.61
50867;BME280;36839;51.946;21.002;2023-04-26T13:39:54;99752.82;;;8.35;54.73
50867;BME280;36839;51.946;21.002;2023-04-26T13:42:23;99751.92;;;8.54;56.08
50867;BME280;36839;51.946;21.002;2023-04-26T13:45:18;99753.52;;;9.03;55.64